sensor_id;sensor_type;location;lat;lon;timestamp;pressure;altitude;pressure_sealevel;temperature;humidity
29379;BME280;16362;47.202;15.258;2023-02-15T00:02:06;97729.66;;;-1.80;100.00
29379;BME280;16362;47.202;15.258;2023-02-15T00:04:33;97722.63;;;-1.78;100.00
29379;BME280;16362;47.202;15.258;2023-02-15T00:07:16;97717.84;;;-1.68;100.00
29379;BME280;16362;47.202;15.258;2023-02-15T00:09:46;97716.16;;;-1.70;100.00
29379;BME280;16362;47.202;15.258;2023-02-15T00:12:13;97720.16;;;-1.61;100.00
29379;BME280;16362;47.202;15.258;2023-02-15T00:14:41;97718.59;;;-1.65;100.00
29379;BME280;16362;47.202;15.258;2023-02-15T00:17:08;97716.75;;;-1.63;100.00
29379;BME280;16362;47.202;15.258;2023-02-15T00:19:35;97714.88;;;-1.59;100.00
29379;BME280;16362;47.202;15.258;2023-02-15T00:22:02;97713.22;;;-1.62;100.00
29379;BME280;16362;47.202;15.258;2023-02-15T00:24:29;97713.75;;;-1.54;100.00
29379;BME280;16362;47.202;15.258;2023-02-15T00:26:56;97714.56;;;-1.51;100.00
29379;BME280;16362;47.202;15.258;2023-02-15T00:29:22;97715.41;;;-1.51;100.00
29379;BME280;16362;47.202;15.258;2023-02-15T00:31:49;97713.53;;;-1.49;100.00
29379;BME280;16362;47.202;15.258;2023-02-15T00:34:19;97713.63;;;-1.50;100.00
29379;BME280;16362;47.202;15.258;2023-02-15T00:36:46;97709.19;;;-1.48;100.00
29379;BME280;16362;47.202;15.258;2023-02-15T00:39:14;97713.50;;;-1.47;100.00
29379;BME280;16362;47.202;15.258;2023-02-15T00:41:41;97716.16;;;-1.49;100.00
29379;BME280;16362;47.202;15.258;2023-02-15T00:44:08;97717.94;;;-1.49;100.00
29379;BME280;16362;47.202;15.258;2023-02-15T00:46:35;97717.69;;;-1.43;100.00
29379;BME280;16362;47.202;15.258;2023-02-15T00:49:02;97718.41;;;-1.40;100.00
29379;BME280;16362;47.202;15.258;2023-02-15T00:51:42;97720.91;;;-1.37;100.00
29379;BME280;16362;47.202;15.258;2023-02-15T00:54:09;97720.50;;;-1.27;100.00
29379;BME280;16362;47.202;15.258;2023-02-15T00:56:35;97718.75;;;-1.27;100.00
29379;BME280;16362;47.202;15.258;2023-02-15T00:59:02;97713.59;;;-1.28;100.00
29379;BME280;16362;47.202;15.258;2023-02-15T01:01:29;97713.50;;;-1.27;100.00
29379;BME280;16362;47.202;15.258;2023-02-15T01:03:55;97718.69;;;-1.25;100.00
29379;BME280;16362;47.202;15.258;2023-02-15T01:06:22;97710.97;;;-1.28;100.00
29379;BME280;16362;47.202;15.258;2023-02-15T01:09:03;97711.03;;;-1.30;100.00
29379;BME280;16362;47.202;15.258;2023-02-15T01:11:29;97705.91;;;-1.33;100.00
29379;BME280;16362;47.202;15.258;2023-02-15T01:13:57;97702.13;;;-1.26;100.00
29379;BME280;16362;47.202;15.258;2023-02-15T01:16:27;97701.06;;;-1.22;100.00
29379;BME280;16362;47.202;15.258;2023-02-15T01:18:54;97698.31;;;-1.19;100.00
29379;BME280;16362;47.202;15.258;2023-02-15T01:21:23;97693.91;;;-1.18;100.00
29379;BME280;16362;47.202;15.258;2023-02-15T01:23:50;97698.25;;;-1.17;100.00
29379;BME280;16362;47.202;15.258;2023-02-15T01:26:17;97689.41;;;-1.14;100.00
29379;BME280;16362;47.202;15.258;2023-02-15T01:28:44;97686.63;;;-1.11;100.00
29379;BME280;16362;47.202;15.258;2023-02-15T01:31:14;97681.41;;;-1.11;100.00
29379;BME280;16362;47.202;15.258;2023-02-15T01:33:42;97683.09;;;-1.10;100.00
29379;BME280;16362;47.202;15.258;2023-02-15T01:36:09;97682.13;;;-1.08;100.00
29379;BME280;16362;47.202;15.258;2023-02-15T01:38:36;97681.13;;;-1.05;100.00
29379;BME280;16362;47.202;15.258;2023-02-15T01:41:03;97670.50;;;-1.02;100.00
29379;BME280;16362;47.202;15.258;2023-02-15T01:43:52;97680.84;;;-0.99;100.00
29379;BME280;16362;47.202;15.258;2023-02-15T01:46:23;97674.69;;;-0.98;100.00
29379;BME280;16362;47.202;15.258;2023-02-15T01:49:16;97672.88;;;-0.96;100.00
29379;BME280;16362;47.202;15.258;2023-02-15T01:51:46;97669.28;;;-0.93;100.00
29379;BME280;16362;47.202;15.258;2023-02-15T01:54:19;97667.41;;;-0.91;100.00
29379;BME280;16362;47.202;15.258;2023-02-15T01:56:48;97663.81;;;-0.89;100.00
29379;BME280;16362;47.202;15.258;2023-02-15T02:02:56;97649.78;;;-0.88;100.00
29379;BME280;16362;47.202;15.258;2023-02-15T02:05:24;97644.47;;;-0.86;100.00
29379;BME280;16362;47.202;15.258;2023-02-15T02:07:54;97640.00;;;-0.84;100.00
29379;BME280;16362;47.202;15.258;2023-02-15T02:10:22;97644.41;;;-0.85;100.00
29379;BME280;16362;47.202;15.258;2023-02-15T02:12:52;97636.47;;;-0.83;100.00
29379;BME280;16362;47.202;15.258;2023-02-15T02:15:26;97632.84;;;-0.80;100.00
29379;BME280;16362;47.202;15.258;2023-02-15T02:20:57;97629.00;;;-0.73;100.00
29379;BME280;16362;47.202;15.258;2023-02-15T02:26:32;97616.47;;;-0.66;100.00
29379;BME280;16362;47.202;15.258;2023-02-15T02:32:05;97616.34;;;-0.63;100.00
29379;BME280;16362;47.202;15.258;2023-02-15T02:35:07;97621.69;;;-0.65;100.00
29379;BME280;16362;47.202;15.258;2023-02-15T02:40:40;97615.56;;;-0.65;100.00
29379;BME280;16362;47.202;15.258;2023-02-15T02:43:24;97615.63;;;-0.67;100.00
29379;BME280;16362;47.202;15.258;2023-02-15T02:46:02;97614.72;;;-0.66;100.00
29379;BME280;16362;47.202;15.258;2023-02-15T02:48:32;97613.09;;;-0.69;100.00
29379;BME280;16362;47.202;15.258;2023-02-15T02:51:00;97613.09;;;-0.69;100.00
29379;BME280;16362;47.202;15.258;2023-02-15T02:53:29;97605.16;;;-0.67;100.00
29379;BME280;16362;47.202;15.258;2023-02-15T02:56:05;97605.78;;;-0.62;100.00
29379;BME280;16362;47.202;15.258;2023-02-15T02:58:45;97598.69;;;-0.60;100.00
29379;BME280;16362;47.202;15.258;2023-02-15T03:01:33;97592.53;;;-0.59;100.00
29379;BME280;16362;47.202;15.258;2023-02-15T03:04:07;97591.59;;;-0.58;100.00
29379;BME280;16362;47.202;15.258;2023-02-15T03:07:00;97595.94;;;-0.57;100.00
29379;BME280;16362;47.202;15.258;2023-02-15T03:09:31;97593.25;;;-0.55;100.00
29379;BME280;16362;47.202;15.258;2023-02-15T03:12:21;97596.53;;;-0.52;100.00
29379;BME280;16362;47.202;15.258;2023-02-15T03:14:51;97599.16;;;-0.52;100.00
29379;BME280;16362;47.202;15.258;2023-02-15T03:17:21;97592.09;;;-0.49;100.00
29379;BME280;16362;47.202;15.258;2023-02-15T03:19:51;97597.41;;;-0.51;100.00
29379;BME280;16362;47.202;15.258;2023-02-15T03:22:48;97594.63;;;-0.48;100.00
29379;BME280;16362;47.202;15.258;2023-02-15T03:25:21;97597.09;;;-0.45;100.00
29379;BME280;16362;47.202;15.258;2023-02-15T03:27:54;97591.94;;;-0.46;100.00
29379;BME280;16362;47.202;15.258;2023-02-15T03:30:22;97597.97;;;-0.44;100.00
29379;BME280;16362;47.202;15.258;2023-02-15T03:32:50;97600.69;;;-0.46;100.00
29379;BME280;16362;47.202;15.258;2023-02-15T03:35:21;97597.97;;;-0.44;100.00
29379;BME280;16362;47.202;15.258;2023-02-15T03:38:09;97602.22;;;-0.42;100.00
29379;BME280;16362;47.202;15.258;2023-02-15T03:40:45;97596.09;;;-0.42;100.00
29379;BME280;16362;47.202;15.258;2023-02-15T03:48:51;97596.25;;;-0.45;100.00
29379;BME280;16362;47.202;15.258;2023-02-15T03:51:21;97603.34;;;-0.47;100.00
29379;BME280;16362;47.202;15.258;2023-02-15T03:54:05;97595.47;;;-0.47;100.00
29379;BME280;16362;47.202;15.258;2023-02-15T03:56:35;97594.56;;;-0.46;100.00
29379;BME280;16362;47.202;15.258;2023-02-15T03:59:02;97592.00;;;-0.48;100.00
29379;BME280;16362;47.202;15.258;2023-02-15T04:02:00;97593.72;;;-0.47;100.00
29379;BME280;16362;47.202;15.258;2023-02-15T04:04:38;97591.81;;;-0.43;100.00
29379;BME280;16362;47.202;15.258;2023-02-15T04:07:08;97593.41;;;-0.41;100.00
29379;BME280;16362;47.202;15.258;2023-02-15T04:09:36;97595.19;;;-0.41;100.00
29379;BME280;16362;47.202;15.258;2023-02-15T04:12:21;97593.34;;;-0.39;100.00
29379;BME280;16362;47.202;15.258;2023-02-15T04:14:47;97597.81;;;-0.41;100.00
29379;BME280;16362;47.202;15.258;2023-02-15T04:17:33;97601.44;;;-0.44;100.00
29379;BME280;16362;47.202;15.258;2023-02-15T04:21:07;97597.25;;;-0.48;100.00
29379;BME280;16362;47.202;15.258;2023-02-15T04:23:52;97602.66;;;-0.51;100.00
29379;BME280;16362;47.202;15.258;2023-02-15T04:26:37;97597.50;;;-0.53;100.00
29379;BME280;16362;47.202;15.258;2023-02-15T04:29:03;97598.97;;;-0.47;100.00
29379;BME280;16362;47.202;15.258;2023-02-15T04:31:30;97590.22;;;-0.47;100.00
29379;BME280;16362;47.202;15.258;2023-02-15T04:33:57;97598.06;;;-0.46;100.00
29379;BME280;16362;47.202;15.258;2023-02-15T04:36:23;97593.78;;;-0.48;100.00
29379;BME280;16362;47.202;15.258;2023-02-15T04:38:50;97597.50;;;-0.53;100.00
29379;BME280;16362;47.202;15.258;2023-02-15T04:41:17;97595.06;;;-0.57;100.00
29379;BME280;16362;47.202;15.258;2023-02-15T04:43:55;97592.44;;;-0.57;100.00
29379;BME280;16362;47.202;15.258;2023-02-15T04:46:22;97590.69;;;-0.57;100.00
29379;BME280;16362;47.202;15.258;2023-02-15T04:48:49;97586.22;;;-0.55;100.00
29379;BME280;16362;47.202;15.258;2023-02-15T04:51:16;97586.38;;;-0.58;100.00
29379;BME280;16362;47.202;15.258;2023-02-15T04:53:42;97583.19;;;-0.64;100.00
29379;BME280;16362;47.202;15.258;2023-02-15T04:56:09;97591.31;;;-0.71;100.00
29379;BME280;16362;47.202;15.258;2023-02-15T04:58:36;97584.84;;;-0.81;100.00
29379;BME280;16362;47.202;15.258;2023-02-15T05:01:05;97591.06;;;-0.83;100.00
29379;BME280;16362;47.202;15.258;2023-02-15T05:03:32;97583.97;;;-0.81;100.00
29379;BME280;16362;47.202;15.258;2023-02-15T05:05:59;97578.53;;;-0.77;100.00
29379;BME280;16362;47.202;15.258;2023-02-15T05:08:26;97587.38;;;-0.79;100.00
29379;BME280;16362;47.202;15.258;2023-02-15T05:10:53;97575.91;;;-0.77;100.00
29379;BME280;16362;47.202;15.258;2023-02-15T05:13:19;97581.91;;;-0.75;100.00
29379;BME280;16362;47.202;15.258;2023-02-15T05:15:51;97581.91;;;-0.75;100.00
29379;BME280;16362;47.202;15.258;2023-02-15T05:18:19;97574.84;;;-0.73;100.00
29379;BME280;16362;47.202;15.258;2023-02-15T05:20:56;97582.13;;;-0.79;100.00
29379;BME280;16362;47.202;15.258;2023-02-15T05:23:23;97579.78;;;-0.86;100.00
29379;BME280;16362;47.202;15.258;2023-02-15T05:25:50;97577.38;;;-0.90;100.00
29379;BME280;16362;47.202;15.258;2023-02-15T05:28:37;97574.19;;;-0.97;100.00
29379;BME280;16362;47.202;15.258;2023-02-15T05:31:11;97579.59;;;-1.00;100.00
29379;BME280;16362;47.202;15.258;2023-02-15T05:33:39;97572.97;;;-1.09;100.00
29379;BME280;16362;47.202;15.258;2023-02-15T05:36:07;97572.34;;;-1.14;100.00
29379;BME280;16362;47.202;15.258;2023-02-15T05:38:34;97577.00;;;-1.21;100.00
29379;BME280;16362;47.202;15.258;2023-02-15T05:41:06;97579.19;;;-1.30;100.00
29379;BME280;16362;47.202;15.258;2023-02-15T05:43:34;97576.91;;;-1.38;100.00
29379;BME280;16362;47.202;15.258;2023-02-15T05:46:01;97572.88;;;-1.45;100.00
29379;BME280;16362;47.202;15.258;2023-02-15T05:48:29;97573.72;;;-1.45;100.00
29379;BME280;16362;47.202;15.258;2023-02-15T05:53:28;97577.34;;;-1.68;100.00
29379;BME280;16362;47.202;15.258;2023-02-15T05:55:55;97576.75;;;-1.75;100.00
29379;BME280;16362;47.202;15.258;2023-02-15T05:58:40;97577.88;;;-1.80;100.00
29379;BME280;16362;47.202;15.258;2023-02-15T06:01:15;97581.47;;;-1.83;100.00
29379;BME280;16362;47.202;15.258;2023-02-15T06:03:44;97573.91;;;-1.89;100.00
29379;BME280;16362;47.202;15.258;2023-02-15T06:06:11;97587.06;;;-1.91;100.00
29379;BME280;16362;47.202;15.258;2023-02-15T06:08:38;97584.63;;;-1.95;100.00
29379;BME280;16362;47.202;15.258;2023-02-15T06:11:05;97587.38;;;-1.98;100.00
29379;BME280;16362;47.202;15.258;2023-02-15T06:13:32;97589.13;;;-1.99;100.00
29379;BME280;16362;47.202;15.258;2023-02-15T06:16:03;97594.69;;;-2.07;100.00
29379;BME280;16362;47.202;15.258;2023-02-15T06:18:31;97593.94;;;-2.10;100.00
29379;BME280;16362;47.202;15.258;2023-02-15T06:20:57;97596.69;;;-2.13;100.00
29379;BME280;16362;47.202;15.258;2023-02-15T06:23:24;97597.75;;;-2.17;100.00
29379;BME280;16362;47.202;15.258;2023-02-15T06:25:51;97602.25;;;-2.21;100.00
29379;BME280;16362;47.202;15.258;2023-02-15T06:28:17;97600.06;;;-2.32;100.00
29379;BME280;16362;47.202;15.258;2023-02-15T06:30:44;97599.16;;;-2.31;100.00
29379;BME280;16362;47.202;15.258;2023-02-15T06:33:11;97600.88;;;-2.30;100.00
29379;BME280;16362;47.202;15.258;2023-02-15T06:35:37;97596.47;;;-2.29;100.00
29379;BME280;16362;47.202;15.258;2023-02-15T06:38:04;97604.50;;;-2.34;100.00
29379;BME280;16362;47.202;15.258;2023-02-15T06:40:31;97608.19;;;-2.40;100.00
29379;BME280;16362;47.202;15.258;2023-02-15T06:42:57;97606.69;;;-2.45;100.00
29379;BME280;16362;47.202;15.258;2023-02-15T06:45:24;97611.84;;;-2.44;100.00
29379;BME280;16362;47.202;15.258;2023-02-15T06:47:51;97616.19;;;-2.43;100.00
29379;BME280;16362;47.202;15.258;2023-02-15T06:50:18;97619.41;;;-2.36;100.00
29379;BME280;16362;47.202;15.258;2023-02-15T06:52:45;97614.97;;;-2.34;100.00
29379;BME280;16362;47.202;15.258;2023-02-15T06:55:11;97615.06;;;-2.37;100.00
29379;BME280;16362;47.202;15.258;2023-02-15T06:57:38;97620.97;;;-2.32;100.00
29379;BME280;16362;47.202;15.258;2023-02-15T07:00:05;97620.97;;;-2.32;100.00
29379;BME280;16362;47.202;15.258;2023-02-15T07:02:32;97624.34;;;-2.28;100.00
29379;BME280;16362;47.202;15.258;2023-02-15T07:04:59;97631.00;;;-2.21;100.00
29379;BME280;16362;47.202;15.258;2023-02-15T07:07:25;97630.16;;;-2.22;100.00
29379;BME280;16362;47.202;15.258;2023-02-15T07:09:52;97619.16;;;-2.30;100.00
29379;BME280;16362;47.202;15.258;2023-02-15T07:12:19;97608.56;;;-2.27;100.00
29379;BME280;16362;47.202;15.258;2023-02-15T07:15:04;97611.72;;;-2.18;100.00
29379;BME280;16362;47.202;15.258;2023-02-15T07:17:33;97609.94;;;-2.18;100.00
29379;BME280;16362;47.202;15.258;2023-02-15T07:20:07;97605.66;;;-2.19;100.00
29379;BME280;16362;47.202;15.258;2023-02-15T07:22:35;97602.31;;;-2.23;100.00
29379;BME280;16362;47.202;15.258;2023-02-15T07:25:04;97607.47;;;-2.21;100.00
29379;BME280;16362;47.202;15.258;2023-02-15T07:27:31;97608.13;;;-2.16;100.00
29379;BME280;16362;47.202;15.258;2023-02-15T07:29:59;97600.88;;;-2.09;100.00
29379;BME280;16362;47.202;15.258;2023-02-15T07:32:31;97602.34;;;-2.02;100.00
29379;BME280;16362;47.202;15.258;2023-02-15T07:34:58;97602.75;;;-1.91;100.00
29379;BME280;16362;47.202;15.258;2023-02-15T07:37:26;97596.25;;;-1.82;100.00
29379;BME280;16362;47.202;15.258;2023-02-15T07:39:53;97596.59;;;-1.69;100.00
29379;BME280;16362;47.202;15.258;2023-02-15T07:42:19;97595.94;;;-1.54;100.00
29379;BME280;16362;47.202;15.258;2023-02-15T07:44:47;97597.50;;;-1.49;100.00
29379;BME280;16362;47.202;15.258;2023-02-15T07:47:14;97589.50;;;-1.46;100.00
29379;BME280;16362;47.202;15.258;2023-02-15T07:49:40;97589.31;;;-1.42;100.00
29379;BME280;16362;47.202;15.258;2023-02-15T07:52:07;97590.53;;;-1.30;100.00
29379;BME280;16362;47.202;15.258;2023-02-15T07:54:34;97583.28;;;-1.04;100.00
29379;BME280;16362;47.202;15.258;2023-02-15T07:57:01;97572.47;;;-0.79;100.00
29379;BME280;16362;47.202;15.258;2023-02-15T07:59:28;97569.88;;;-0.42;100.00
29379;BME280;16362;47.202;15.258;2023-02-15T08:01:55;97567.13;;;-0.04;100.00
29379;BME280;16362;47.202;15.258;2023-02-15T08:04:23;97573.16;;;0.33;100.00
29379;BME280;16362;47.202;15.258;2023-02-15T08:06:53;97562.00;;;0.63;100.00
29379;BME280;16362;47.202;15.258;2023-02-15T08:09:21;97558.47;;;0.80;100.00
29379;BME280;16362;47.202;15.258;2023-02-15T08:12:38;97557.72;;;0.94;100.00
29379;BME280;16362;47.202;15.258;2023-02-15T08:15:05;97559.25;;;0.98;100.00
29379;BME280;16362;47.202;15.258;2023-02-15T08:17:36;97558.84;;;1.06;100.00
29379;BME280;16362;47.202;15.258;2023-02-15T08:20:03;97556.13;;;1.07;100.00
29379;BME280;16362;47.202;15.258;2023-02-15T08:22:29;97563.53;;;1.16;100.00
29379;BME280;16362;47.202;15.258;2023-02-15T08:24:57;97552.47;;;1.26;100.00
29379;BME280;16362;47.202;15.258;2023-02-15T08:27:24;97552.31;;;1.29;100.00
29379;BME280;16362;47.202;15.258;2023-02-15T08:29:53;97548.13;;;1.41;100.00
29379;BME280;16362;47.202;15.258;2023-02-15T08:32:19;97547.06;;;1.29;100.00
29379;BME280;16362;47.202;15.258;2023-02-15T08:34:46;97551.47;;;1.28;100.00
29379;BME280;16362;47.202;15.258;2023-02-15T08:37:13;97542.81;;;1.42;100.00
29379;BME280;16362;47.202;15.258;2023-02-15T08:39:40;97544.16;;;1.49;100.00
29379;BME280;16362;47.202;15.258;2023-02-15T08:42:09;97547.59;;;1.66;100.00
29379;BME280;16362;47.202;15.258;2023-02-15T08:44:35;97552.13;;;1.64;100.00
29379;BME280;16362;47.202;15.258;2023-02-15T08:47:02;97547.19;;;1.74;100.00
29379;BME280;16362;47.202;15.258;2023-02-15T08:49:30;97543.94;;;1.84;100.00
29379;BME280;16362;47.202;15.258;2023-02-15T08:51:57;97542.81;;;1.89;100.00
29379;BME280;16362;47.202;15.258;2023-02-15T08:54:24;97543.56;;;1.91;100.00
29379;BME280;16362;47.202;15.258;2023-02-15T08:56:50;97544.72;;;2.01;100.00
29379;BME280;16362;47.202;15.258;2023-02-15T08:59:22;97530.09;;;2.11;100.00
29379;BME280;16362;47.202;15.258;2023-02-15T09:01:50;97540.63;;;2.26;100.00
29379;BME280;16362;47.202;15.258;2023-02-15T09:04:18;97538.31;;;2.50;100.00
29379;BME280;16362;47.202;15.258;2023-02-15T09:06:46;97529.09;;;2.72;100.00
29379;BME280;16362;47.202;15.258;2023-02-15T09:09:16;97536.81;;;2.89;100.00
29379;BME280;16362;47.202;15.258;2023-02-15T09:11:45;97526.88;;;3.07;100.00
29379;BME280;16362;47.202;15.258;2023-02-15T09:14:14;97521.34;;;3.12;100.00
29379;BME280;16362;47.202;15.258;2023-02-15T09:16:45;97510.84;;;3.25;100.00
29379;BME280;16362;47.202;15.258;2023-02-15T09:19:16;97516.19;;;3.37;100.00
29379;BME280;16362;47.202;15.258;2023-02-15T09:21:44;97516.69;;;3.57;100.00
29379;BME280;16362;47.202;15.258;2023-02-15T09:26:04;97514.22;;;3.81;100.00
29379;BME280;16362;47.202;15.258;2023-02-15T09:28:31;97506.50;;;3.78;100.00
29379;BME280;16362;47.202;15.258;2023-02-15T09:31:26;97504.53;;;3.95;100.00
29379;BME280;16362;47.202;15.258;2023-02-15T09:33:54;97502.44;;;3.87;99.33
29379;BME280;16362;47.202;15.258;2023-02-15T09:36:27;97501.59;;;3.99;100.00
29379;BME280;16362;47.202;15.258;2023-02-15T09:39:00;97499.81;;;4.26;96.34
29379;BME280;16362;47.202;15.258;2023-02-15T09:52:59;97490.16;;;4.76;92.96
29379;BME280;16362;47.202;15.258;2023-02-15T09:55:53;97484.03;;;4.76;94.38
29379;BME280;16362;47.202;15.258;2023-02-15T09:58:46;97476.41;;;4.97;92.89
29379;BME280;16362;47.202;15.258;2023-02-15T10:04:36;97479.59;;;5.50;88.25
29379;BME280;16362;47.202;15.258;2023-02-15T10:09:55;97478.22;;;5.69;87.86
29379;BME280;16362;47.202;15.258;2023-02-15T10:21:01;97459.66;;;5.93;86.47
29379;BME280;16362;47.202;15.258;2023-02-15T10:26:21;97452.41;;;5.95;86.37
29379;BME280;16362;47.202;15.258;2023-02-15T10:28:53;97454.28;;;6.06;83.79
29379;BME280;16362;47.202;15.258;2023-02-15T10:45:03;97441.53;;;5.76;86.36
29379;BME280;16362;47.202;15.258;2023-02-15T10:47:40;97437.03;;;6.00;86.37
29379;BME280;16362;47.202;15.258;2023-02-15T10:53:07;97427.69;;;6.30;83.71
29379;BME280;16362;47.202;15.258;2023-02-15T11:01:05;97417.84;;;6.55;84.11
29379;BME280;16362;47.202;15.258;2023-02-15T11:06:31;97408.91;;;6.67;80.68
29379;BME280;16362;47.202;15.258;2023-02-15T11:09:07;97403.31;;;6.82;82.36
29379;BME280;16362;47.202;15.258;2023-02-15T11:11:37;97398.72;;;6.95;81.80
29379;BME280;16362;47.202;15.258;2023-02-15T11:16:49;97388.44;;;7.02;80.26
29379;BME280;16362;47.202;15.258;2023-02-15T11:19:22;97383.34;;;7.10;78.72
29379;BME280;16362;47.202;15.258;2023-02-15T11:21:55;97389.66;;;6.98;80.80
29379;BME280;16362;47.202;15.258;2023-02-15T11:24:28;97381.16;;;7.15;79.18
29379;BME280;16362;47.202;15.258;2023-02-15T11:27:16;97370.19;;;7.20;79.57
29379;BME280;16362;47.202;15.258;2023-02-15T11:30:21;97363.75;;;7.22;79.89
29379;BME280;16362;47.202;15.258;2023-02-15T11:32:52;97363.59;;;7.35;77.73
29379;BME280;16362;47.202;15.258;2023-02-15T11:35:28;97358.72;;;7.19;79.05
29379;BME280;16362;47.202;15.258;2023-02-15T11:38:18;97358.22;;;7.25;77.99
29379;BME280;16362;47.202;15.258;2023-02-15T11:40:53;97359.44;;;7.21;79.52
29379;BME280;16362;47.202;15.258;2023-02-15T11:46:01;97347.66;;;7.35;77.54
29379;BME280;16362;47.202;15.258;2023-02-15T11:48:30;97341.75;;;7.32;78.57
29379;BME280;16362;47.202;15.258;2023-02-15T11:50:58;97343.72;;;7.30;77.68
29379;BME280;16362;47.202;15.258;2023-02-15T11:53:28;97342.16;;;7.27;79.34
29379;BME280;16362;47.202;15.258;2023-02-15T11:55:57;97341.19;;;7.28;80.70
29379;BME280;16362;47.202;15.258;2023-02-15T11:58:37;97331.13;;;7.32;79.88
29379;BME280;16362;47.202;15.258;2023-02-15T12:01:14;97326.09;;;7.29;79.41
29379;BME280;16362;47.202;15.258;2023-02-15T12:03:47;97320.72;;;7.40;78.63
29379;BME280;16362;47.202;15.258;2023-02-15T12:06:27;97315.59;;;7.27;81.20
29379;BME280;16362;47.202;15.258;2023-02-15T12:09:01;97311.78;;;7.20;81.51
29379;BME280;16362;47.202;15.258;2023-02-15T12:11:35;97305.81;;;7.28;79.83
29379;BME280;16362;47.202;15.258;2023-02-15T12:14:06;97304.84;;;7.29;79.90
29379;BME280;16362;47.202;15.258;2023-02-15T12:16:47;97313.66;;;6.97;83.28
29379;BME280;16362;47.202;15.258;2023-02-15T12:19:29;97306.38;;;7.10;82.48
29379;BME280;16362;47.202;15.258;2023-02-15T12:21:58;97310.59;;;7.13;82.29
29379;BME280;16362;47.202;15.258;2023-02-15T12:24:30;97300.22;;;7.10;81.55
29379;BME280;16362;47.202;15.258;2023-02-15T12:27:15;97300.56;;;7.16;82.46
29379;BME280;16362;47.202;15.258;2023-02-15T12:32:54;97290.31;;;6.90;83.95
29379;BME280;16362;47.202;15.258;2023-02-15T12:35:33;97291.00;;;6.93;83.37
29379;BME280;16362;47.202;15.258;2023-02-15T12:38:05;97289.00;;;6.73;84.91
29379;BME280;16362;47.202;15.258;2023-02-15T12:40:57;97284.56;;;6.74;83.88
29379;BME280;16362;47.202;15.258;2023-02-15T12:43:42;97277.84;;;6.70;84.62
29379;BME280;16362;47.202;15.258;2023-02-15T12:46:25;97279.16;;;6.64;85.08
29379;BME280;16362;47.202;15.258;2023-02-15T12:49:19;97279.88;;;6.66;84.65
29379;BME280;16362;47.202;15.258;2023-02-15T12:51:51;97274.00;;;6.51;85.74
29379;BME280;16362;47.202;15.258;2023-02-15T12:56:51;97273.66;;;6.45;87.47
29379;BME280;16362;47.202;15.258;2023-02-15T12:59:18;97270.88;;;6.46;86.67
29379;BME280;16362;47.202;15.258;2023-02-15T13:01:50;97276.56;;;6.30;87.41
29379;BME280;16362;47.202;15.258;2023-02-15T13:06:52;97275.63;;;6.09;89.61
29379;BME280;16362;47.202;15.258;2023-02-15T13:11:49;97271.66;;;6.14;89.44
29379;BME280;16362;47.202;15.258;2023-02-15T13:14:18;97270.47;;;6.18;89.20
29379;BME280;16362;47.202;15.258;2023-02-15T13:16:47;97275.75;;;6.07;89.79
29379;BME280;16362;47.202;15.258;2023-02-15T13:19:34;97271.41;;;5.95;90.70
29379;BME280;16362;47.202;15.258;2023-02-15T13:22:07;97271.75;;;5.79;92.34
29379;BME280;16362;47.202;15.258;2023-02-15T13:24:40;97268.88;;;5.70;92.57
29379;BME280;16362;47.202;15.258;2023-02-15T13:27:12;97260.78;;;5.72;92.47
29379;BME280;16362;47.202;15.258;2023-02-15T13:29:45;97261.03;;;5.69;93.18
29379;BME280;16362;47.202;15.258;2023-02-15T13:32:33;97258.38;;;5.80;92.32
29379;BME280;16362;47.202;15.258;2023-02-15T13:35:04;97257.31;;;5.71;93.42
29379;BME280;16362;47.202;15.258;2023-02-15T13:37:50;97256.94;;;5.76;92.72
29379;BME280;16362;47.202;15.258;2023-02-15T13:40:25;97257.78;;;5.65;93.90
29379;BME280;16362;47.202;15.258;2023-02-15T13:45:47;97253.56;;;5.51;94.66
29379;BME280;16362;47.202;15.258;2023-02-15T13:57:15;97265.72;;;5.43;96.14
29379;BME280;16362;47.202;15.258;2023-02-15T14:00:02;97266.19;;;5.36;96.70
29379;BME280;16362;47.202;15.258;2023-02-15T14:16:14;97264.75;;;4.97;100.00
29379;BME280;16362;47.202;15.258;2023-02-15T14:24:37;97269.94;;;4.50;100.00
29379;BME280;16362;47.202;15.258;2023-02-15T14:27:20;97271.38;;;4.43;100.00
29379;BME280;16362;47.202;15.258;2023-02-15T14:29:59;97272.56;;;4.26;100.00
29379;BME280;16362;47.202;15.258;2023-02-15T14:32:47;97270.66;;;4.28;100.00
29379;BME280;16362;47.202;15.258;2023-02-15T14:35:22;97274.16;;;4.15;100.00
29379;BME280;16362;47.202;15.258;2023-02-15T14:49:24;97262.25;;;4.10;100.00
29379;BME280;16362;47.202;15.258;2023-02-15T14:51:55;97267.47;;;3.98;100.00
29379;BME280;16362;47.202;15.258;2023-02-15T15:04:41;97264.03;;;3.59;100.00
29379;BME280;16362;47.202;15.258;2023-02-15T15:07:19;97266.03;;;3.56;100.00
29379;BME280;16362;47.202;15.258;2023-02-15T15:10:32;97265.81;;;3.46;100.00
29379;BME280;16362;47.202;15.258;2023-02-15T15:12:57;97272.38;;;3.40;100.00
29379;BME280;16362;47.202;15.258;2023-02-15T15:25:50;97279.44;;;2.86;100.00
29379;BME280;16362;47.202;15.258;2023-02-15T15:31:17;97270.66;;;2.73;100.00
29379;BME280;16362;47.202;15.258;2023-02-15T15:50:33;97267.25;;;2.31;100.00
29379;BME280;16362;47.202;15.258;2023-02-15T15:53:02;97270.38;;;2.23;100.00
29379;BME280;16362;47.202;15.258;2023-02-15T15:55:31;97269.91;;;2.16;100.00
29379;BME280;16362;47.202;15.258;2023-02-15T15:58:03;97263.69;;;2.17;100.00
29379;BME280;16362;47.202;15.258;2023-02-15T16:03:00;97268.06;;;2.04;100.00
29379;BME280;16362;47.202;15.258;2023-02-15T16:05:34;97262.25;;;1.99;100.00
29379;BME280;16362;47.202;15.258;2023-02-15T16:08:02;97268.09;;;1.90;100.00
29379;BME280;16362;47.202;15.258;2023-02-15T16:10:30;97261.34;;;1.85;100.00
29379;BME280;16362;47.202;15.258;2023-02-15T16:12:59;97267.81;;;1.80;100.00